createdAt,value
2023-03-13T00:01:13.998Z,98938.84
2023-03-13T00:03:43.346Z,98932.22
2023-03-13T00:06:11.392Z,98920.59
2023-03-13T00:08:39.374Z,98917.91
2023-03-13T00:11:08.454Z,98915.59
2023-03-13T00:13:36.488Z,98906.09
2023-03-13T00:16:05.608Z,98917.47
2023-03-13T00:18:33.877Z,98909.00
2023-03-13T00:21:05.176Z,98917.25
2023-03-13T00:23:37.326Z,98898.47
2023-03-13T00:26:07.209Z,98918.81
2023-03-13T00:28:36.262Z,98899.53
2023-03-13T00:31:05.224Z,98880.69
2023-03-13T00:33:34.379Z,98895.19
2023-03-13T00:36:05.764Z,98895.03
2023-03-13T00:38:34.404Z,98874.72
2023-03-13T00:41:03.532Z,98857.91
2023-03-13T00:43:31.927Z,98847.34
2023-03-13T00:46:00.594Z,98854.81
2023-03-13T00:48:29.459Z,98862.22
2023-03-13T00:50:57.506Z,98870.13
2023-03-13T00:53:26.880Z,98861.41
2023-03-13T00:55:56.867Z,98844.44
2023-03-13T00:58:25.964Z,98849.66
2023-03-13T01:00:54.289Z,98823.34
2023-03-13T01:03:25.619Z,98826.22
2023-03-13T01:05:58.000Z,98842.81
2023-03-13T01:08:28.005Z,98816.72
2023-03-13T01:11:00.459Z,98802.44
2023-03-13T01:13:29.196Z,98821.09
2023-03-13T01:15:57.404Z,98808.22
2023-03-13T01:18:25.314Z,98783.59
2023-03-13T01:20:54.340Z,98803.88
2023-03-13T01:23:22.188Z,98835.81
2023-03-13T01:25:51.585Z,98801.00
2023-03-13T01:28:19.811Z,98819.22
2023-03-13T01:30:47.909Z,98843.22
2023-03-13T01:33:16.345Z,98810.91
2023-03-13T01:35:44.651Z,98815.88
2023-03-13T01:38:12.643Z,98813.81
2023-03-13T01:40:42.193Z,98806.34
2023-03-13T01:43:27.080Z,98812.13
2023-03-13T01:46:02.170Z,98741.94
2023-03-13T01:48:39.553Z,98792.47
2023-03-13T01:51:11.650Z,98761.22
2023-03-13T01:53:44.559Z,98773.84
2023-03-13T01:56:18.551Z,98767.00
2023-03-13T01:58:50.403Z,98760.81
2023-03-13T02:01:20.010Z,98780.69
2023-03-13T02:03:50.405Z,98782.56
2023-03-13T02:06:19.695Z,98751.09
2023-03-13T02:08:52.773Z,98750.50
2023-03-13T02:11:27.311Z,98809.53
2023-03-13T02:13:57.735Z,98754.22
2023-03-13T02:16:26.488Z,98727.28
2023-03-13T02:18:54.908Z,98766.22
2023-03-13T02:21:36.638Z,98758.56
2023-03-13T02:24:15.114Z,98717.34
2023-03-13T02:26:44.430Z,98707.41
2023-03-13T02:29:18.438Z,98726.88
2023-03-13T02:31:48.602Z,98745.91
2023-03-13T02:34:20.625Z,98719.44
2023-03-13T02:36:50.373Z,98708.22
2023-03-13T02:39:21.742Z,98706.56
2023-03-13T02:41:52.949Z,98753.81
2023-03-13T02:44:20.824Z,98691.69
2023-03-13T02:46:52.557Z,98688.13
2023-03-13T02:49:29.121Z,98687.72
2023-03-13T02:52:01.286Z,98671.38
2023-03-13T02:54:34.408Z,98681.31
2023-03-13T02:57:06.214Z,98690.22
2023-03-13T02:59:34.937Z,98686.50
2023-03-13T03:02:03.413Z,98665.56
2023-03-13T03:04:32.163Z,98658.53
2023-03-13T03:07:00.684Z,98692.69
2023-03-13T03:09:28.544Z,98656.03
2023-03-13T03:11:56.625Z,98680.44
2023-03-13T03:14:26.069Z,98694.31
2023-03-13T03:16:53.987Z,98623.75
2023-03-13T03:19:21.907Z,98663.06
2023-03-13T03:21:49.795Z,98656.03
2023-03-13T03:24:17.728Z,98645.03
2023-03-13T03:26:46.096Z,98636.97
2023-03-13T03:29:14.294Z,98636.34
2023-03-13T03:31:43.785Z,98635.31
2023-03-13T03:34:12.046Z,98625.00
2023-03-13T03:36:39.920Z,98644.44
2023-03-13T03:39:07.733Z,98631.59
2023-03-13T03:41:35.963Z,98621.25
2023-03-13T03:44:03.808Z,98593.50
2023-03-13T03:46:32.032Z,98639.25
2023-03-13T03:49:01.367Z,98624.56
2023-03-13T03:51:29.280Z,98633.06
2023-03-13T03:53:57.476Z,98607.19
2023-03-13T03:56:25.798Z,98618.75
2023-03-13T03:58:53.686Z,98623.31
2023-03-13T04:01:21.806Z,98586.06
2023-03-13T04:03:50.278Z,98653.53
2023-03-13T04:06:19.726Z,98629.53
2023-03-13T04:08:47.595Z,98593.13
2023-03-13T04:11:15.782Z,98611.09
2023-03-13T04:13:43.652Z,98572.59
2023-03-13T04:16:12.341Z,98575.31
2023-03-13T04:18:40.262Z,98557.50
2023-03-13T04:21:08.259Z,98579.88
2023-03-13T04:23:37.532Z,98590.41
2023-03-13T04:26:05.854Z,98579.88
2023-03-13T04:28:33.686Z,98554.81
2023-03-13T04:31:01.712Z,98563.50
2023-03-13T04:33:30.507Z,98538.91
2023-03-13T04:35:58.392Z,98527.50
2023-03-13T04:38:26.312Z,98585.25
2023-03-13T04:40:55.870Z,98534.13
2023-03-13T04:43:23.913Z,98541.16
2023-03-13T04:45:54.638Z,98478.25
2023-03-13T04:48:22.614Z,98544.28
2023-03-13T04:50:51.081Z,98532.03
2023-03-13T04:53:19.627Z,98533.91
2023-03-13T04:55:49.685Z,98538.06
2023-03-13T04:58:19.268Z,98525.63
2023-03-13T05:00:47.172Z,98551.50
2023-03-13T05:03:15.070Z,98485.94
2023-03-13T05:05:42.950Z,98510.94
2023-03-13T05:08:11.361Z,98509.50
2023-03-13T05:10:39.361Z,98532.88
2023-03-13T05:13:07.247Z,98501.03
2023-03-13T05:15:36.862Z,98501.22
2023-03-13T05:18:06.305Z,98519.88
2023-03-13T05:20:34.581Z,98518.19
2023-03-13T05:23:02.552Z,98494.41
2023-03-13T05:25:31.033Z,98502.03
2023-03-13T05:27:58.898Z,98507.63
2023-03-13T05:30:26.769Z,98506.97
2023-03-13T05:32:56.247Z,98498.72
2023-03-13T05:35:24.476Z,98484.63
2023-03-13T05:37:52.502Z,98473.47
2023-03-13T05:40:20.706Z,98479.47
2023-03-13T05:42:49.038Z,98510.69
2023-03-13T05:45:17.066Z,98434.41
2023-03-13T05:47:45.149Z,98474.31
2023-03-13T05:50:14.862Z,98460.25
2023-03-13T05:52:43.269Z,98544.03
2023-03-13T05:55:11.341Z,98454.47
2023-03-13T05:57:39.524Z,98450.75
2023-03-13T06:00:08.682Z,98481.78
2023-03-13T06:02:36.588Z,98470.63
2023-03-13T06:05:04.823Z,98431.31
2023-03-13T06:07:34.388Z,98458.19
2023-03-13T06:10:02.603Z,98435.44
2023-03-13T06:12:30.538Z,98423.47
2023-03-13T06:14:58.773Z,98426.34
2023-03-13T06:17:26.858Z,98413.94
2023-03-13T06:19:54.713Z,98391.63
2023-03-13T06:22:22.624Z,98385.84
2023-03-13T06:24:52.259Z,98399.50
2023-03-13T06:27:20.129Z,98411.47
2023-03-13T06:29:48.284Z,98406.06
2023-03-13T06:32:16.442Z,98405.03
2023-03-13T06:34:44.467Z,98453.25
2023-03-13T06:37:12.405Z,98439.16
2023-03-13T06:39:40.615Z,98474.56
2023-03-13T06:42:10.130Z,98384.38
2023-03-13T06:44:38.636Z,98404.84
2023-03-13T06:47:06.901Z,98454.06
2023-03-13T06:49:34.856Z,98441.22
2023-03-13T06:52:02.821Z,98437.28
2023-03-13T06:54:30.730Z,98463.38
2023-03-13T06:56:58.608Z,98410.22
2023-03-13T06:59:28.342Z,98441.03
2023-03-13T07:01:56.380Z,98413.13
2023-03-13T07:04:24.336Z,98453.19
2023-03-13T07:06:52.623Z,98410.00
2023-03-13T07:09:21.069Z,98474.28
2023-03-13T07:11:49.267Z,98441.63
2023-03-13T07:14:17.779Z,98432.75
2023-03-13T07:16:47.850Z,98442.88
2023-03-13T07:19:16.392Z,98440.19
2023-03-13T07:21:44.486Z,98422.19
2023-03-13T07:24:12.690Z,98418.50
2023-03-13T07:26:46.469Z,98466.06
2023-03-13T07:29:22.497Z,98434.00
2023-03-13T07:31:51.948Z,98460.47
2023-03-13T07:34:20.023Z,98501.63
2023-03-13T07:36:47.897Z,98486.31
2023-03-13T07:39:15.992Z,98395.13
2023-03-13T07:41:43.979Z,98420.53
2023-03-13T07:44:11.983Z,98436.47
2023-03-13T07:46:39.938Z,98449.72
2023-03-13T07:49:10.112Z,98440.81
2023-03-13T07:51:43.987Z,98485.09
2023-03-13T07:54:12.546Z,98460.66
2023-03-13T07:56:41.062Z,98471.25
2023-03-13T07:59:09.473Z,98460.09
2023-03-13T08:01:38.015Z,98449.72
2023-03-13T08:04:06.393Z,98470.63
2023-03-13T08:06:36.837Z,98478.91
2023-03-13T08:09:05.617Z,98483.25
2023-03-13T08:11:34.051Z,98516.75
2023-03-13T08:14:02.080Z,98496.69
2023-03-13T08:16:31.662Z,98474.13
2023-03-13T08:19:00.693Z,98491.06
2023-03-13T08:21:30.199Z,98487.56
2023-03-13T08:24:01.512Z,98493.78
2023-03-13T08:26:31.027Z,98562.50
2023-03-13T08:29:00.394Z,98497.50
2023-03-13T08:31:30.457Z,98521.72
2023-03-13T08:33:58.786Z,98481.16
2023-03-13T08:36:28.741Z,98506.41
2023-03-13T08:38:59.521Z,98484.06
2023-03-13T08:41:30.948Z,98468.56
2023-03-13T08:43:59.666Z,98518.63
2023-03-13T08:46:30.636Z,98499.78
2023-03-13T08:48:58.842Z,98478.69
2023-03-13T08:51:28.685Z,98471.03
2023-03-13T08:53:57.674Z,98483.66
2023-03-13T08:56:30.455Z,98489.22
2023-03-13T08:59:01.096Z,98488.41
2023-03-13T09:01:31.596Z,98498.97
2023-03-13T09:04:03.585Z,98600.16
2023-03-13T09:06:32.050Z,98520.03
2023-03-13T09:08:59.986Z,98489.00
2023-03-13T09:11:29.810Z,98511.34
2023-03-13T09:13:59.417Z,98499.13
2023-03-13T09:16:28.848Z,98534.53
2023-03-13T09:18:58.028Z,98529.78
2023-03-13T09:21:27.738Z,98505.53
2023-03-13T09:23:55.876Z,98529.34
2023-03-13T09:26:24.507Z,98486.28
2023-03-13T09:28:54.864Z,98516.91
2023-03-13T09:31:24.933Z,98503.84
2023-03-13T09:33:53.444Z,98523.94
2023-03-13T09:36:22.881Z,98509.84
2023-03-13T09:38:51.795Z,98518.09
2023-03-13T09:41:27.391Z,98528.47
2023-03-13T09:44:03.275Z,98496.97
2023-03-13T09:46:39.018Z,98523.03
2023-03-13T09:49:17.925Z,98537.34
2023-03-13T09:51:50.705Z,98549.53
2023-03-13T09:54:25.992Z,98543.75
2023-03-13T09:56:58.685Z,98528.41
2023-03-13T09:59:46.298Z,98532.16
2023-03-13T10:02:22.979Z,98584.97
2023-03-13T10:04:55.350Z,98547.06
2023-03-13T10:07:23.472Z,98540.84
2023-03-13T10:09:51.951Z,98555.19
2023-03-13T10:12:22.098Z,98531.53
2023-03-13T10:15:01.803Z,98514.38
2023-03-13T10:17:34.598Z,98552.25
2023-03-13T10:20:10.991Z,98541.09
2023-03-13T10:22:39.715Z,98546.09
2023-03-13T10:25:16.599Z,98569.03
2023-03-13T10:27:46.614Z,98529.69
2023-03-13T10:30:24.949Z,98470.06
2023-03-13T10:32:55.687Z,98515.03
2023-03-13T10:35:27.664Z,98518.97
2023-03-13T10:38:04.691Z,98525.16
2023-03-13T10:40:32.822Z,98505.28
2023-03-13T10:43:07.034Z,98556.59
2023-03-13T10:45:39.197Z,98533.41
2023-03-13T10:48:14.200Z,98528.44
2023-03-13T10:50:44.953Z,98518.06
2023-03-13T10:53:27.513Z,98545.38
2023-03-13T10:55:56.877Z,98531.91
2023-03-13T10:58:31.762Z,98489.00
2023-03-13T11:01:18.543Z,98519.19
2023-03-13T11:03:47.912Z,98524.56
2023-03-13T11:06:30.606Z,98511.88
2023-03-13T11:09:13.267Z,98512.53
2023-03-13T11:11:49.148Z,98516.25
2023-03-13T11:14:19.599Z,98497.00
2023-03-13T11:16:55.781Z,98529.50
2023-03-13T11:19:54.511Z,98521.44
2023-03-13T11:22:47.363Z,98541.97
2023-03-13T11:25:21.979Z,98538.66
2023-03-13T11:27:59.630Z,98543.81
2023-03-13T11:30:50.678Z,98532.66
2023-03-13T11:33:30.370Z,98528.09
2023-03-13T11:36:04.479Z,98541.34
2023-03-13T11:38:38.843Z,98528.50
2023-03-13T11:41:22.545Z,98551.84
2023-03-13T11:44:01.618Z,98521.06
2023-03-13T11:46:46.983Z,98502.81
2023-03-13T11:49:35.661Z,98507.41
2023-03-13T11:52:17.943Z,98487.78
2023-03-13T11:54:59.957Z,98490.91
2023-03-13T11:57:30.979Z,98465.25
2023-03-13T12:00:17.448Z,98477.66
2023-03-13T12:02:51.506Z,98526.84
2023-03-13T12:05:22.090Z,98496.81
2023-03-13T12:07:55.707Z,98501.69
2023-03-13T12:10:29.125Z,98515.84
2023-03-13T12:13:04.796Z,98532.25
2023-03-13T12:15:37.129Z,98506.38
2023-03-13T12:18:13.777Z,98518.94
2023-03-13T12:20:50.189Z,98493.50
2023-03-13T12:23:25.173Z,98501.16
2023-03-13T12:25:56.598Z,98526.38
2023-03-13T12:28:35.408Z,98463.56
2023-03-13T12:31:15.385Z,98468.53
2023-03-13T12:33:48.127Z,98482.59
2023-03-13T12:36:21.838Z,98461.94
2023-03-13T12:38:58.285Z,98470.59
2023-03-13T12:41:32.037Z,98458.53
2023-03-13T12:44:08.646Z,98435.72
2023-03-13T12:46:42.473Z,98439.81
2023-03-13T12:49:38.092Z,98431.03
2023-03-13T12:52:32.561Z,98425.16
2023-03-13T12:55:24.909Z,98423.41
2023-03-13T12:58:11.027Z,98414.91
2023-03-13T13:00:42.696Z,98416.50
2023-03-13T13:03:21.912Z,98422.44
2023-03-13T13:06:06.138Z,98418.13
2023-03-13T13:08:43.837Z,98398.91
2023-03-13T13:11:48.367Z,98384.56
2023-03-13T13:14:59.312Z,98390.13
2023-03-13T13:17:47.215Z,98411.69
2023-03-13T13:20:39.178Z,98388.34
2023-03-13T13:23:23.265Z,98404.94
2023-03-13T13:25:54.394Z,98382.06
2023-03-13T13:28:33.457Z,98353.00
2023-03-13T13:31:02.150Z,98350.88
2023-03-13T13:33:39.034Z,98340.78
2023-03-13T13:36:30.724Z,98349.69
2023-03-13T13:38:59.928Z,98340.81
2023-03-13T13:41:36.701Z,98342.53
2023-03-13T13:44:23.960Z,98337.84
2023-03-13T13:46:52.526Z,98340.56
2023-03-13T13:49:22.224Z,98334.56
2023-03-13T13:52:37.144Z,98337.41
2023-03-13T13:55:32.918Z,98336.97
2023-03-13T13:58:05.185Z,98309.13
2023-03-13T14:00:41.160Z,98315.78
2023-03-13T14:03:20.620Z,98324.13
2023-03-13T14:05:50.807Z,98291.91
2023-03-13T14:08:24.153Z,98315.16
2023-03-13T14:11:05.023Z,98282.53
2023-03-13T14:13:34.540Z,98298.19
2023-03-13T14:16:24.102Z,98284.94
2023-03-13T14:18:52.900Z,98296.47
2023-03-13T14:21:23.836Z,98275.81
2023-03-13T14:23:52.209Z,98256.63
2023-03-13T14:26:22.318Z,98251.66
2023-03-13T14:28:53.743Z,98258.44
2023-03-13T14:31:27.167Z,98247.75
2023-03-13T14:33:56.901Z,98267.75
2023-03-13T14:36:25.392Z,98242.59
2023-03-13T14:38:55.396Z,98258.91
2023-03-13T14:41:31.554Z,98251.47
2023-03-13T14:44:15.134Z,98258.50
2023-03-13T14:46:45.294Z,98243.22
2023-03-13T14:49:21.156Z,98235.44
2023-03-13T14:51:59.339Z,98236.22
2023-03-13T14:54:30.614Z,98245.94
2023-03-13T14:57:13.921Z,98241.91
2023-03-13T14:59:43.702Z,98257.41
2023-03-13T15:02:20.065Z,98241.09
2023-03-13T15:05:00.347Z,98253.78
2023-03-13T15:07:36.918Z,98264.59
2023-03-13T15:10:20.045Z,98252.13
2023-03-13T15:12:48.778Z,98253.94
2023-03-13T15:15:18.186Z,98246.28
2023-03-13T15:17:46.352Z,98248.84
2023-03-13T15:20:16.161Z,98253.72
2023-03-13T15:22:46.270Z,98247.66
2023-03-13T15:25:17.397Z,98243.84
2023-03-13T15:27:45.640Z,98246.97
2023-03-13T15:30:19.184Z,98258.28
2023-03-13T15:32:48.150Z,98243.50
2023-03-13T15:35:28.859Z,98256.22
2023-03-13T15:37:57.302Z,98257.94
2023-03-13T15:40:26.083Z,98238.31
2023-03-13T15:42:54.592Z,98244.75
2023-03-13T15:45:24.009Z,98230.69
2023-03-13T15:47:52.406Z,98234.78
2023-03-13T15:50:22.454Z,98226.25
2023-03-13T15:52:50.524Z,98219.00
2023-03-13T15:55:18.558Z,98250.16
2023-03-13T15:57:48.372Z,98213.81
2023-03-13T16:00:19.952Z,98217.34
2023-03-13T16:02:52.054Z,98228.56
2023-03-13T16:05:20.315Z,98211.09
2023-03-13T16:07:48.416Z,98219.91
2023-03-13T16:10:19.163Z,98221.97
2023-03-13T16:12:47.030Z,98189.63
2023-03-13T16:15:14.998Z,98195.63
2023-03-13T16:17:43.042Z,98207.00
2023-03-13T16:20:17.101Z,98196.97
2023-03-13T16:22:45.635Z,98211.44
2023-03-13T16:25:14.403Z,98183.78
2023-03-13T16:27:42.892Z,98182.09
2023-03-13T16:30:35.454Z,98171.63
2023-03-13T16:33:03.515Z,98176.34
2023-03-13T16:35:35.584Z,98178.56
2023-03-13T16:38:03.852Z,98163.25
2023-03-13T16:40:34.167Z,98160.63
2023-03-13T16:43:02.686Z,98151.72
2023-03-13T16:45:30.908Z,98173.00
2023-03-13T16:47:58.962Z,98178.22
2023-03-13T16:50:30.214Z,98171.19
2023-03-13T16:52:59.585Z,98172.25
2023-03-13T16:55:29.758Z,98158.03
2023-03-13T16:57:58.373Z,98150.09
2023-03-13T17:00:28.516Z,98164.09
2023-03-13T17:02:57.655Z,98164.31
2023-03-13T17:05:27.114Z,98156.03
2023-03-13T17:07:55.081Z,98177.22
2023-03-13T17:10:26.864Z,98157.50
2023-03-13T17:12:54.971Z,98190.06
2023-03-13T17:15:23.893Z,98165.91
2023-03-13T17:17:53.388Z,98160.72
2023-03-13T17:20:23.872Z,98165.03
2023-03-13T17:22:53.575Z,98175.66
2023-03-13T17:25:21.606Z,98175.34
2023-03-13T17:27:51.052Z,98161.56
2023-03-13T17:30:22.368Z,98167.19
2023-03-13T17:32:50.856Z,98164.50
2023-03-13T17:35:20.316Z,98155.66
2023-03-13T17:37:48.973Z,98161.88
2023-03-13T17:40:18.963Z,98163.38
2023-03-13T17:42:46.813Z,98157.19
2023-03-13T17:45:16.612Z,98175.41
2023-03-13T17:47:45.080Z,98177.91
2023-03-13T17:50:18.925Z,98167.16
2023-03-13T17:52:47.375Z,98170.47
2023-03-13T17:55:15.700Z,98167.81
2023-03-13T17:57:44.350Z,98175.47
2023-03-13T18:00:22.040Z,98180.84
2023-03-13T18:02:50.421Z,98171.75
2023-03-13T18:05:19.094Z,98178.16
2023-03-13T18:07:47.747Z,98169.28
2023-03-13T18:10:19.975Z,98185.59
2023-03-13T18:12:48.164Z,98172.19
2023-03-13T18:15:18.083Z,98185.19
2023-03-13T18:17:46.410Z,98163.50
2023-03-13T18:20:19.606Z,98173.03
2023-03-13T18:22:47.968Z,98176.97
2023-03-13T18:25:16.146Z,98180.06
2023-03-13T18:27:44.239Z,98169.16
2023-03-13T18:30:16.661Z,98161.06
2023-03-13T18:32:46.876Z,98154.91
2023-03-13T18:35:15.765Z,98177.81
2023-03-13T18:37:45.202Z,98166.66
2023-03-13T18:40:18.218Z,98171.00
2023-03-13T18:42:46.090Z,98164.38
2023-03-13T18:45:18.173Z,98162.09
2023-03-13T18:47:48.490Z,98166.84
2023-03-13T18:50:28.456Z,98169.75
2023-03-13T18:52:59.052Z,98157.38
2023-03-13T18:55:30.529Z,98163.53
2023-03-13T18:57:59.046Z,98181.28
2023-03-13T19:00:28.627Z,98168.28
2023-03-13T19:02:58.251Z,98177.16
2023-03-13T19:05:26.139Z,98173.88
2023-03-13T19:07:54.364Z,98170.97
2023-03-13T19:10:24.613Z,98186.03
2023-03-13T19:12:53.207Z,98182.09
2023-03-13T19:15:22.024Z,98182.31
2023-03-13T19:17:49.984Z,98179.81
2023-03-13T19:20:37.325Z,98180.03
2023-03-13T19:23:05.298Z,98179.38
2023-03-13T19:25:34.534Z,98190.09
2023-03-13T19:28:02.447Z,98178.94
2023-03-13T19:30:30.518Z,98169.47
2023-03-13T19:32:58.855Z,98176.69
2023-03-13T19:35:26.972Z,98172.56
2023-03-13T19:37:56.460Z,98171.50
2023-03-13T19:40:28.527Z,98170.91
2023-03-13T19:42:56.432Z,98177.28
2023-03-13T19:45:24.660Z,98184.91
2023-03-13T19:47:52.645Z,98177.09
2023-03-13T19:50:22.385Z,98188.41
2023-03-13T19:52:50.391Z,98178.06
2023-03-13T19:55:20.198Z,98169.22
2023-03-13T19:57:48.339Z,98180.13
2023-03-13T20:00:21.140Z,98171.28
2023-03-13T20:02:49.533Z,98173.53
2023-03-13T20:05:18.517Z,98173.75
2023-03-13T20:07:47.754Z,98193.31
2023-03-13T20:10:16.041Z,98183.41
2023-03-13T20:12:45.547Z,98171.88
2023-03-13T20:15:14.241Z,98189.00
2023-03-13T20:17:42.339Z,98192.06
2023-03-13T20:20:13.650Z,98199.13
2023-03-13T20:22:41.679Z,98182.44
2023-03-13T20:25:10.473Z,98205.91
2023-03-13T20:27:39.196Z,98215.81
2023-03-13T20:30:10.216Z,98217.28
2023-03-13T20:32:46.218Z,98226.75
2023-03-13T20:35:25.051Z,98240.75
2023-03-13T20:37:54.634Z,98240.13
2023-03-13T20:40:22.842Z,98239.09
2023-03-13T20:42:52.107Z,98246.53
2023-03-13T20:45:21.473Z,98237.44
2023-03-13T20:47:49.488Z,98250.63
2023-03-13T20:50:19.630Z,98270.44
2023-03-13T20:52:48.739Z,98266.94
2023-03-13T20:55:17.029Z,98276.63
2023-03-13T20:57:44.901Z,98299.91
2023-03-13T21:00:13.683Z,98289.16
2023-03-13T21:02:43.663Z,98318.81
2023-03-13T21:05:11.638Z,98302.94
2023-03-13T21:07:42.116Z,98290.25
2023-03-13T21:10:11.657Z,98332.25
2023-03-13T21:12:39.755Z,98305.13
2023-03-13T21:15:09.663Z,98329.94
2023-03-13T21:17:37.915Z,98348.16
2023-03-13T21:20:11.764Z,98355.41
2023-03-13T21:22:40.112Z,98380.38
2023-03-13T21:25:09.110Z,98423.84
2023-03-13T21:27:37.518Z,98382.38
2023-03-13T21:30:07.526Z,98415.41
2023-03-13T21:32:37.942Z,98388.28
2023-03-13T21:35:07.876Z,98400.53
2023-03-13T21:37:36.265Z,98415.69
2023-03-13T21:40:06.488Z,98435.38
2023-03-13T21:42:36.117Z,98448.94
2023-03-13T21:45:04.041Z,98446.81
2023-03-13T21:47:36.689Z,98471.41
2023-03-13T21:50:08.434Z,98475.09
2023-03-13T21:52:40.847Z,98515.38
2023-03-13T21:55:11.281Z,98492.69
2023-03-13T21:57:39.249Z,98505.88
2023-03-13T22:00:08.978Z,98509.91
2023-03-13T22:02:37.771Z,98545.97
2023-03-13T22:05:08.587Z,98553.34
2023-03-13T22:07:38.872Z,98568.34
2023-03-13T22:10:07.697Z,98587.53
2023-03-13T22:12:37.288Z,98600.53
2023-03-13T22:15:05.980Z,98616.22
2023-03-13T22:17:34.038Z,98640.75
2023-03-13T22:20:02.052Z,98649.75
2023-03-13T22:22:32.352Z,98647.38
2023-03-13T22:25:00.509Z,98662.25
2023-03-13T22:27:28.461Z,98662.78
2023-03-13T22:29:57.112Z,98671.31
2023-03-13T22:32:26.993Z,98686.34
2023-03-13T22:34:55.082Z,98693.91
2023-03-13T22:37:26.715Z,98700.44
2023-03-13T22:39:56.549Z,98716.13
2023-03-13T22:42:25.116Z,98730.13
2023-03-13T22:44:55.148Z,98732.16
2023-03-13T22:47:23.816Z,98728.81
2023-03-13T22:49:52.554Z,98751.25
2023-03-13T22:52:21.397Z,98754.44
2023-03-13T22:54:49.371Z,98756.47
2023-03-13T22:57:18.747Z,98759.66
2023-03-13T22:59:46.745Z,98765.34
2023-03-13T23:02:14.956Z,98788.13
2023-03-13T23:04:43.275Z,98797.47
2023-03-13T23:07:12.305Z,98821.19
2023-03-13T23:09:40.296Z,98828.56
2023-03-13T23:12:08.259Z,98829.53
2023-03-13T23:14:37.697Z,98823.22
2023-03-13T23:17:06.007Z,98834.88
2023-03-13T23:19:35.591Z,98859.94
2023-03-13T23:22:03.513Z,98861.59
2023-03-13T23:24:31.394Z,98878.31
2023-03-13T23:26:59.294Z,98896.50
2023-03-13T23:29:27.308Z,98902.66
2023-03-13T23:31:57.035Z,98903.50
2023-03-13T23:34:25.288Z,98919.69
2023-03-13T23:36:54.457Z,98913.03
2023-03-13T23:39:25.068Z,98927.03
2023-03-13T23:41:53.160Z,98941.22
2023-03-13T23:44:21.232Z,98942.03
2023-03-13T23:46:49.231Z,98948.72
2023-03-13T23:49:18.831Z,98961.56
2023-03-13T23:51:46.696Z,98965.44
2023-03-13T23:54:14.724Z,98984.13
2023-03-13T23:56:42.773Z,98992.97
2023-03-13T23:59:10.705Z,98991.81
